Terminal Aerodrome Forecast
Issued by NWS

Home | Current Version | Previous Version | Graphics & Text | Print | Product List | Glossary On
Versions: 1 2 3 4 5 6 7 8 9 10 11 12 13 14 15 16 17 18 19
495
FTUS43 KPAH 291734
TAFCGI
TAF
KCGI 291734Z 2918/3018 08008KT P6SM -SHRA VCTS SCT035CB OVC080
      TEMPO 2918/2920 3SM SHRA BR BKN030
     FM292100 08007KT P6SM SCT050 BKN100
     FM300300 12011KT 6SM -SHRA BR BKN030
     FM300900 14010G20KT 4SM -SHRA BR BKN020 PROB30 3009/3015 2SM
      TSRA BR BKN007CB=

USA.gov is the U.S. government's official web portal to all federal, state and local government web resources and services.